sensor_id;sensor_type;location;lat;lon;timestamp;temperature;humidity
652;DHT22;310;48.490;9.200;2023-03-31T00:02:18;15.30;34.00
652;DHT22;310;48.490;9.200;2023-03-31T00:04:46;15.60;32.60
652;DHT22;310;48.490;9.200;2023-03-31T00:07:18;16.00;31.70
652;DHT22;310;48.490;9.200;2023-03-31T00:09:47;15.90;31.60
652;DHT22;310;48.490;9.200;2023-03-31T00:12:15;15.60;32.80
652;DHT22;310;48.490;9.200;2023-03-31T00:14:44;14.70;34.20
652;DHT22;310;48.490;9.200;2023-03-31T00:17:10;14.90;33.90
652;DHT22;310;48.490;9.200;2023-03-31T00:19:36;14.60;34.90
652;DHT22;310;48.490;9.200;2023-03-31T00:22:01;14.60;35.40
652;DHT22;310;48.490;9.200;2023-03-31T00:24:30;15.00;34.40
652;DHT22;310;48.490;9.200;2023-03-31T00:26:58;15.20;34.30
652;DHT22;310;48.490;9.200;2023-03-31T00:29:23;15.10;35.00
652;DHT22;310;48.490;9.200;2023-03-31T00:31:50;15.30;34.10
652;DHT22;310;48.490;9.200;2023-03-31T00:34:15;15.30;34.20
652;DHT22;310;48.490;9.200;2023-03-31T00:36:41;15.40;33.90
652;DHT22;310;48.490;9.200;2023-03-31T00:39:13;15.50;33.40
652;DHT22;310;48.490;9.200;2023-03-31T00:41:39;15.60;33.40
652;DHT22;310;48.490;9.200;2023-03-31T00:49:28;15.30;33.90
652;DHT22;310;48.490;9.200;2023-03-31T00:52:00;15.20;34.80
652;DHT22;310;48.490;9.200;2023-03-31T00:54:28;15.00;34.70
652;DHT22;310;48.490;9.200;2023-03-31T00:56:55;14.90;35.60
652;DHT22;310;48.490;9.200;2023-03-31T00:59:26;15.20;34.80
652;DHT22;310;48.490;9.200;2023-03-31T01:01:54;15.40;33.40
652;DHT22;310;48.490;9.200;2023-03-31T01:04:23;15.70;32.50
652;DHT22;310;48.490;9.200;2023-03-31T01:07:01;15.80;32.60
652;DHT22;310;48.490;9.200;2023-03-31T01:09:30;15.70;33.00
652;DHT22;310;48.490;9.200;2023-03-31T01:12:01;15.50;34.10
652;DHT22;310;48.490;9.200;2023-03-31T01:14:29;15.10;34.50
652;DHT22;310;48.490;9.200;2023-03-31T01:16:55;14.50;35.60
652;DHT22;310;48.490;9.200;2023-03-31T01:37:21;15.60;30.80
652;DHT22;310;48.490;9.200;2023-03-31T01:43:06;16.20;28.90
652;DHT22;310;48.490;9.200;2023-03-31T01:46:34;15.80;29.20
652;DHT22;310;48.490;9.200;2023-03-31T01:48:51;15.20;30.20
652;DHT22;310;48.490;9.200;2023-03-31T01:57:12;14.80;31.80
652;DHT22;310;48.490;9.200;2023-03-31T01:59:46;14.50;32.80
652;DHT22;310;48.490;9.200;2023-03-31T02:02:21;14.80;32.90
652;DHT22;310;48.490;9.200;2023-03-31T02:04:54;15.30;32.50
652;DHT22;310;48.490;9.200;2023-03-31T02:07:27;15.40;31.70
652;DHT22;310;48.490;9.200;2023-03-31T02:09:59;14.80;32.80
652;DHT22;310;48.490;9.200;2023-03-31T02:12:27;14.40;35.40
652;DHT22;310;48.490;9.200;2023-03-31T02:14:56;14.50;35.40
652;DHT22;310;48.490;9.200;2023-03-31T02:17:24;14.70;35.50
652;DHT22;310;48.490;9.200;2023-03-31T02:20:04;14.50;36.80
652;DHT22;310;48.490;9.200;2023-03-31T02:22:34;14.00;38.90
652;DHT22;310;48.490;9.200;2023-03-31T02:25:04;13.80;42.10
652;DHT22;310;48.490;9.200;2023-03-31T02:27:36;13.60;42.10
652;DHT22;310;48.490;9.200;2023-03-31T02:30:03;14.00;42.10
652;DHT22;310;48.490;9.200;2023-03-31T02:32:42;14.10;43.60
652;DHT22;310;48.490;9.200;2023-03-31T02:35:13;14.50;42.50
652;DHT22;310;48.490;9.200;2023-03-31T02:37:40;14.80;43.80
652;DHT22;310;48.490;9.200;2023-03-31T02:40:17;14.80;44.30
652;DHT22;310;48.490;9.200;2023-03-31T02:42:43;14.90;44.90
652;DHT22;310;48.490;9.200;2023-03-31T02:48:02;15.00;43.60
652;DHT22;310;48.490;9.200;2023-03-31T02:50:34;14.90;43.90
652;DHT22;310;48.490;9.200;2023-03-31T03:10:16;15.20;44.10
652;DHT22;310;48.490;9.200;2023-03-31T03:13:05;15.30;43.30
652;DHT22;310;48.490;9.200;2023-03-31T03:15:40;15.30;42.80
652;DHT22;310;48.490;9.200;2023-03-31T03:18:08;15.40;42.70
652;DHT22;310;48.490;9.200;2023-03-31T03:20:34;15.30;42.60
652;DHT22;310;48.490;9.200;2023-03-31T03:23:01;14.70;43.90
652;DHT22;310;48.490;9.200;2023-03-31T03:25:27;14.40;45.30
652;DHT22;310;48.490;9.200;2023-03-31T03:27:54;14.40;46.00
652;DHT22;310;48.490;9.200;2023-03-31T03:30:20;14.60;45.20
652;DHT22;310;48.490;9.200;2023-03-31T03:32:46;14.60;45.10
652;DHT22;310;48.490;9.200;2023-03-31T03:35:12;14.60;45.60
652;DHT22;310;48.490;9.200;2023-03-31T03:37:38;14.60;45.40
652;DHT22;310;48.490;9.200;2023-03-31T03:40:04;14.50;44.90
652;DHT22;310;48.490;9.200;2023-03-31T03:42:33;14.40;45.00
652;DHT22;310;48.490;9.200;2023-03-31T03:45:00;14.50;44.30
652;DHT22;310;48.490;9.200;2023-03-31T03:47:26;14.20;44.90
652;DHT22;310;48.490;9.200;2023-03-31T03:49:52;13.90;44.60
652;DHT22;310;48.490;9.200;2023-03-31T03:52:18;13.70;44.60
652;DHT22;310;48.490;9.200;2023-03-31T03:54:44;13.70;45.60
652;DHT22;310;48.490;9.200;2023-03-31T03:57:10;13.80;44.90
652;DHT22;310;48.490;9.200;2023-03-31T03:59:35;13.80;44.70
652;DHT22;310;48.490;9.200;2023-03-31T04:02:01;13.50;44.60
652;DHT22;310;48.490;9.200;2023-03-31T04:04:27;13.50;43.40
652;DHT22;310;48.490;9.200;2023-03-31T04:06:52;13.60;43.80
652;DHT22;310;48.490;9.200;2023-03-31T04:09:18;13.90;43.60
652;DHT22;310;48.490;9.200;2023-03-31T04:11:43;14.10;42.60
652;DHT22;310;48.490;9.200;2023-03-31T04:14:09;13.70;43.20
652;DHT22;310;48.490;9.200;2023-03-31T04:16:35;13.30;44.90
652;DHT22;310;48.490;9.200;2023-03-31T04:19:00;13.20;45.10
652;DHT22;310;48.490;9.200;2023-03-31T04:21:29;13.20;45.70
652;DHT22;310;48.490;9.200;2023-03-31T04:23:59;13.30;45.60
652;DHT22;310;48.490;9.200;2023-03-31T04:26:33;13.30;45.10
652;DHT22;310;48.490;9.200;2023-03-31T04:29:13;13.20;46.90
652;DHT22;310;48.490;9.200;2023-03-31T04:31:39;13.50;45.10
652;DHT22;310;48.490;9.200;2023-03-31T04:34:11;13.60;43.90
652;DHT22;310;48.490;9.200;2023-03-31T04:36:44;13.80;43.10
652;DHT22;310;48.490;9.200;2023-03-31T04:39:17;13.90;44.10
652;DHT22;310;48.490;9.200;2023-03-31T04:41:48;13.60;45.00
652;DHT22;310;48.490;9.200;2023-03-31T04:44:14;13.50;45.80
652;DHT22;310;48.490;9.200;2023-03-31T04:46:39;13.50;45.20
652;DHT22;310;48.490;9.200;2023-03-31T04:49:05;13.40;44.80
652;DHT22;310;48.490;9.200;2023-03-31T04:51:31;13.30;44.80
652;DHT22;310;48.490;9.200;2023-03-31T04:53:56;13.30;44.50
652;DHT22;310;48.490;9.200;2023-03-31T04:56:22;13.40;45.10
652;DHT22;310;48.490;9.200;2023-03-31T04:58:48;13.50;44.80
652;DHT22;310;48.490;9.200;2023-03-31T05:01:13;13.70;44.60
652;DHT22;310;48.490;9.200;2023-03-31T05:03:42;13.90;42.90
652;DHT22;310;48.490;9.200;2023-03-31T05:06:08;13.90;41.60
652;DHT22;310;48.490;9.200;2023-03-31T05:08:34;13.80;43.30
652;DHT22;310;48.490;9.200;2023-03-31T05:11:01;13.80;42.60
652;DHT22;310;48.490;9.200;2023-03-31T05:13:27;14.00;43.90
652;DHT22;310;48.490;9.200;2023-03-31T05:15:53;14.00;44.30
652;DHT22;310;48.490;9.200;2023-03-31T05:18:18;14.10;45.20
652;DHT22;310;48.490;9.200;2023-03-31T05:20:44;14.10;46.20
652;DHT22;310;48.490;9.200;2023-03-31T05:23:09;14.00;47.70
652;DHT22;310;48.490;9.200;2023-03-31T05:25:35;13.40;48.50
652;DHT22;310;48.490;9.200;2023-03-31T05:28:01;13.30;51.60
652;DHT22;310;48.490;9.200;2023-03-31T05:30:27;13.40;51.70
652;DHT22;310;48.490;9.200;2023-03-31T05:32:54;13.80;53.80
652;DHT22;310;48.490;9.200;2023-03-31T05:35:21;13.90;50.40
652;DHT22;310;48.490;9.200;2023-03-31T05:37:47;14.20;48.80
652;DHT22;310;48.490;9.200;2023-03-31T05:40:12;14.40;50.80
652;DHT22;310;48.490;9.200;2023-03-31T05:42:38;14.30;49.30
652;DHT22;310;48.490;9.200;2023-03-31T05:45:04;14.60;50.00
652;DHT22;310;48.490;9.200;2023-03-31T05:47:30;14.90;46.70
652;DHT22;310;48.490;9.200;2023-03-31T05:49:56;14.60;49.10
652;DHT22;310;48.490;9.200;2023-03-31T05:52:23;14.40;49.70
652;DHT22;310;48.490;9.200;2023-03-31T05:54:48;14.40;50.10
652;DHT22;310;48.490;9.200;2023-03-31T05:57:14;14.40;50.90
652;DHT22;310;48.490;9.200;2023-03-31T05:59:39;14.40;52.50
652;DHT22;310;48.490;9.200;2023-03-31T06:02:07;14.40;52.70
652;DHT22;310;48.490;9.200;2023-03-31T06:04:33;14.50;52.50
652;DHT22;310;48.490;9.200;2023-03-31T06:06:58;14.60;50.90
652;DHT22;310;48.490;9.200;2023-03-31T06:09:25;14.30;51.60
652;DHT22;310;48.490;9.200;2023-03-31T06:11:50;14.20;53.20
652;DHT22;310;48.490;9.200;2023-03-31T06:14:16;14.30;53.80
652;DHT22;310;48.490;9.200;2023-03-31T06:16:42;14.40;52.70
652;DHT22;310;48.490;9.200;2023-03-31T06:19:07;14.60;50.90
652;DHT22;310;48.490;9.200;2023-03-31T06:21:33;14.80;50.40
652;DHT22;310;48.490;9.200;2023-03-31T06:23:59;15.00;48.40
652;DHT22;310;48.490;9.200;2023-03-31T06:26:25;15.00;48.20
652;DHT22;310;48.490;9.200;2023-03-31T06:28:52;14.90;49.20
652;DHT22;310;48.490;9.200;2023-03-31T06:31:19;15.20;48.90
652;DHT22;310;48.490;9.200;2023-03-31T06:33:46;15.10;49.90
652;DHT22;310;48.490;9.200;2023-03-31T06:36:13;15.10;50.50
652;DHT22;310;48.490;9.200;2023-03-31T06:38:40;15.10;50.70
652;DHT22;310;48.490;9.200;2023-03-31T06:41:06;15.20;50.50
652;DHT22;310;48.490;9.200;2023-03-31T06:43:32;15.30;49.10
652;DHT22;310;48.490;9.200;2023-03-31T06:45:58;15.40;47.90
652;DHT22;310;48.490;9.200;2023-03-31T06:48:24;15.50;48.60
652;DHT22;310;48.490;9.200;2023-03-31T06:50:52;15.30;51.20
652;DHT22;310;48.490;9.200;2023-03-31T06:53:18;14.30;54.00
652;DHT22;310;48.490;9.200;2023-03-31T06:55:43;13.20;67.00
652;DHT22;310;48.490;9.200;2023-03-31T06:58:09;11.70;84.20
652;DHT22;310;48.490;9.200;2023-03-31T07:00:36;11.40;92.10
652;DHT22;310;48.490;9.200;2023-03-31T07:03:03;11.20;92.20
652;DHT22;310;48.490;9.200;2023-03-31T07:05:29;11.10;91.00
652;DHT22;310;48.490;9.200;2023-03-31T07:07:57;11.00;92.70
652;DHT22;310;48.490;9.200;2023-03-31T07:10:24;11.10;91.20
652;DHT22;310;48.490;9.200;2023-03-31T07:12:50;11.20;89.70
652;DHT22;310;48.490;9.200;2023-03-31T07:15:16;11.50;84.80
652;DHT22;310;48.490;9.200;2023-03-31T07:17:42;11.70;81.70
652;DHT22;310;48.490;9.200;2023-03-31T07:20:14;12.00;83.60
652;DHT22;310;48.490;9.200;2023-03-31T07:22:41;11.80;77.10
652;DHT22;310;48.490;9.200;2023-03-31T07:25:08;11.60;81.20
652;DHT22;310;48.490;9.200;2023-03-31T07:27:35;11.90;75.60
652;DHT22;310;48.490;9.200;2023-03-31T07:30:02;11.90;75.80
652;DHT22;310;48.490;9.200;2023-03-31T07:32:27;12.20;73.50
652;DHT22;310;48.490;9.200;2023-03-31T07:34:53;12.30;70.20
652;DHT22;310;48.490;9.200;2023-03-31T07:37:18;12.70;70.60
652;DHT22;310;48.490;9.200;2023-03-31T07:39:44;12.90;68.30
652;DHT22;310;48.490;9.200;2023-03-31T07:42:10;13.40;66.50
652;DHT22;310;48.490;9.200;2023-03-31T07:44:36;13.40;60.40
652;DHT22;310;48.490;9.200;2023-03-31T07:47:02;13.20;61.60
652;DHT22;310;48.490;9.200;2023-03-31T07:49:31;13.60;60.90
652;DHT22;310;48.490;9.200;2023-03-31T07:51:56;13.30;57.30
652;DHT22;310;48.490;9.200;2023-03-31T07:54:22;13.20;58.20
652;DHT22;310;48.490;9.200;2023-03-31T07:56:48;13.00;59.00
652;DHT22;310;48.490;9.200;2023-03-31T07:59:13;13.40;60.20
652;DHT22;310;48.490;9.200;2023-03-31T08:01:39;13.50;59.80
652;DHT22;310;48.490;9.200;2023-03-31T08:04:05;13.60;54.80
652;DHT22;310;48.490;9.200;2023-03-31T08:06:31;13.40;54.60
652;DHT22;310;48.490;9.200;2023-03-31T08:08:58;13.50;54.70
652;DHT22;310;48.490;9.200;2023-03-31T08:11:24;13.50;52.80
652;DHT22;310;48.490;9.200;2023-03-31T08:13:50;13.60;52.80
652;DHT22;310;48.490;9.200;2023-03-31T08:16:16;13.50;54.10
652;DHT22;310;48.490;9.200;2023-03-31T08:18:42;13.70;52.00
652;DHT22;310;48.490;9.200;2023-03-31T08:21:08;13.90;51.80
652;DHT22;310;48.490;9.200;2023-03-31T08:23:36;14.20;50.80
652;DHT22;310;48.490;9.200;2023-03-31T08:26:13;13.60;52.40
652;DHT22;310;48.490;9.200;2023-03-31T08:28:39;13.70;52.80
652;DHT22;310;48.490;9.200;2023-03-31T08:31:07;13.90;52.20
652;DHT22;310;48.490;9.200;2023-03-31T08:33:33;14.00;52.30
652;DHT22;310;48.490;9.200;2023-03-31T08:36:07;14.10;47.70
652;DHT22;310;48.490;9.200;2023-03-31T08:38:35;13.70;49.10
652;DHT22;310;48.490;9.200;2023-03-31T08:41:09;13.80;48.90
652;DHT22;310;48.490;9.200;2023-03-31T08:43:40;13.60;47.70
652;DHT22;310;48.490;9.200;2023-03-31T08:46:11;13.80;46.30
652;DHT22;310;48.490;9.200;2023-03-31T08:48:45;13.90;45.90
652;DHT22;310;48.490;9.200;2023-03-31T08:51:20;14.20;44.40
652;DHT22;310;48.490;9.200;2023-03-31T08:53:58;14.10;46.10
652;DHT22;310;48.490;9.200;2023-03-31T08:56:28;14.70;46.70
652;DHT22;310;48.490;9.200;2023-03-31T08:58:54;14.70;47.10
652;DHT22;310;48.490;9.200;2023-03-31T09:05:04;15.40;42.30
652;DHT22;310;48.490;9.200;2023-03-31T09:08:15;15.00;43.30
652;DHT22;310;48.490;9.200;2023-03-31T09:10:53;14.80;46.30
652;DHT22;310;48.490;9.200;2023-03-31T09:18:59;15.10;39.90
652;DHT22;310;48.490;9.200;2023-03-31T09:21:29;15.00;38.20
652;DHT22;310;48.490;9.200;2023-03-31T09:28:58;14.10;41.40
652;DHT22;310;48.490;9.200;2023-03-31T09:31:25;14.30;37.90
652;DHT22;310;48.490;9.200;2023-03-31T09:33:53;14.40;37.70
652;DHT22;310;48.490;9.200;2023-03-31T09:36:22;14.30;37.50
652;DHT22;310;48.490;9.200;2023-03-31T09:38:49;14.60;37.40
652;DHT22;310;48.490;9.200;2023-03-31T09:41:16;14.80;38.40
652;DHT22;310;48.490;9.200;2023-03-31T09:43:43;15.30;37.30
652;DHT22;310;48.490;9.200;2023-03-31T09:46:32;15.50;36.80
652;DHT22;310;48.490;9.200;2023-03-31T09:49:14;15.40;35.60
652;DHT22;310;48.490;9.200;2023-03-31T09:51:45;15.60;34.40
652;DHT22;310;48.490;9.200;2023-03-31T09:54:21;15.40;36.30
652;DHT22;310;48.490;9.200;2023-03-31T09:56:49;15.70;35.90
652;DHT22;310;48.490;9.200;2023-03-31T09:59:22;15.80;34.40
652;DHT22;310;48.490;9.200;2023-03-31T10:01:57;15.70;33.30
652;DHT22;310;48.490;9.200;2023-03-31T10:04:27;16.00;33.80
652;DHT22;310;48.490;9.200;2023-03-31T10:06:53;16.20;33.70
652;DHT22;310;48.490;9.200;2023-03-31T10:09:24;16.50;30.70
652;DHT22;310;48.490;9.200;2023-03-31T10:12:02;16.70;30.60
652;DHT22;310;48.490;9.200;2023-03-31T10:14:49;17.00;30.40
652;DHT22;310;48.490;9.200;2023-03-31T10:17:20;17.20;29.90
652;DHT22;310;48.490;9.200;2023-03-31T10:19:57;17.30;31.00
652;DHT22;310;48.490;9.200;2023-03-31T10:22:29;17.30;29.00
652;DHT22;310;48.490;9.200;2023-03-31T10:25:14;17.10;28.00
652;DHT22;310;48.490;9.200;2023-03-31T10:27:40;16.70;29.50
652;DHT22;310;48.490;9.200;2023-03-31T10:30:10;16.80;28.30
652;DHT22;310;48.490;9.200;2023-03-31T10:32:42;16.90;28.00
652;DHT22;310;48.490;9.200;2023-03-31T10:35:22;16.70;27.20
652;DHT22;310;48.490;9.200;2023-03-31T10:37:50;16.70;26.50
652;DHT22;310;48.490;9.200;2023-03-31T10:40:21;17.20;27.90
652;DHT22;310;48.490;9.200;2023-03-31T10:43:19;17.80;24.90
652;DHT22;310;48.490;9.200;2023-03-31T10:45:49;17.20;24.80
652;DHT22;310;48.490;9.200;2023-03-31T10:48:27;16.60;25.90
652;DHT22;310;48.490;9.200;2023-03-31T10:50:58;16.80;26.00
652;DHT22;310;48.490;9.200;2023-03-31T10:53:24;16.70;26.70
652;DHT22;310;48.490;9.200;2023-03-31T11:01:50;17.90;24.70
652;DHT22;310;48.490;9.200;2023-03-31T11:09:47;18.20;24.70
652;DHT22;310;48.490;9.200;2023-03-31T11:12:35;19.40;21.60
652;DHT22;310;48.490;9.200;2023-03-31T11:21:23;17.60;22.70
652;DHT22;310;48.490;9.200;2023-03-31T11:23:55;16.70;23.60
652;DHT22;310;48.490;9.200;2023-03-31T11:26:42;16.30;25.30
652;DHT22;310;48.490;9.200;2023-03-31T11:29:36;13.60;45.50
652;DHT22;310;48.490;9.200;2023-03-31T11:43:44;9.50;87.00
652;DHT22;310;48.490;9.200;2023-03-31T11:46:25;9.40;87.80
652;DHT22;310;48.490;9.200;2023-03-31T11:48:58;9.30;81.90
652;DHT22;310;48.490;9.200;2023-03-31T11:51:27;9.30;87.50
652;DHT22;310;48.490;9.200;2023-03-31T11:53:56;9.40;82.00
652;DHT22;310;48.490;9.200;2023-03-31T11:56:25;9.40;81.50
652;DHT22;310;48.490;9.200;2023-03-31T11:58:56;9.70;81.10
652;DHT22;310;48.490;9.200;2023-03-31T12:01:41;10.30;77.50
652;DHT22;310;48.490;9.200;2023-03-31T12:06:44;11.80;59.30
652;DHT22;310;48.490;9.200;2023-03-31T12:09:59;12.20;55.20
652;DHT22;310;48.490;9.200;2023-03-31T12:12:34;12.50;52.90
652;DHT22;310;48.490;9.200;2023-03-31T12:17:30;11.60;51.60
652;DHT22;310;48.490;9.200;2023-03-31T12:20:05;11.30;56.70
652;DHT22;310;48.490;9.200;2023-03-31T12:22:43;11.00;57.80
652;DHT22;310;48.490;9.200;2023-03-31T12:25:19;10.80;56.90
652;DHT22;310;48.490;9.200;2023-03-31T12:27:51;11.00;54.50
652;DHT22;310;48.490;9.200;2023-03-31T12:33:06;12.50;54.40
652;DHT22;310;48.490;9.200;2023-03-31T12:49:30;19.30;29.90
652;DHT22;310;48.490;9.200;2023-03-31T12:52:06;19.60;29.90
652;DHT22;310;48.490;9.200;2023-03-31T12:57:13;19.60;27.50
652;DHT22;310;48.490;9.200;2023-03-31T12:59:42;18.80;30.20
652;DHT22;310;48.490;9.200;2023-03-31T13:04:37;20.70;26.50
652;DHT22;310;48.490;9.200;2023-03-31T13:07:04;21.00;26.40
652;DHT22;310;48.490;9.200;2023-03-31T13:09:44;20.90;26.20
652;DHT22;310;48.490;9.200;2023-03-31T13:12:19;22.20;27.20
652;DHT22;310;48.490;9.200;2023-03-31T13:14:48;19.70;27.40
652;DHT22;310;48.490;9.200;2023-03-31T13:17:29;19.80;28.30
652;DHT22;310;48.490;9.200;2023-03-31T13:20:42;18.60;29.40
652;DHT22;310;48.490;9.200;2023-03-31T13:22:45;17.90;28.40
652;DHT22;310;48.490;9.200;2023-03-31T13:25:33;16.80;33.70
652;DHT22;310;48.490;9.200;2023-03-31T13:28:10;16.60;33.90
652;DHT22;310;48.490;9.200;2023-03-31T13:30:44;16.50;32.60
652;DHT22;310;48.490;9.200;2023-03-31T13:33:23;16.00;34.90
652;DHT22;310;48.490;9.200;2023-03-31T13:39:25;18.50;27.50
652;DHT22;310;48.490;9.200;2023-03-31T13:45:29;16.40;31.20
652;DHT22;310;48.490;9.200;2023-03-31T13:59:29;12.80;48.60
652;DHT22;310;48.490;9.200;2023-03-31T14:05:03;12.10;57.30
652;DHT22;310;48.490;9.200;2023-03-31T14:08:06;12.10;69.60
652;DHT22;310;48.490;9.200;2023-03-31T14:10:35;11.50;68.20
652;DHT22;310;48.490;9.200;2023-03-31T14:13:11;13.00;63.40
652;DHT22;310;48.490;9.200;2023-03-31T14:15:41;15.40;47.10
652;DHT22;310;48.490;9.200;2023-03-31T14:18:12;17.00;42.80
652;DHT22;310;48.490;9.200;2023-03-31T14:23:32;18.00;35.20
652;DHT22;310;48.490;9.200;2023-03-31T14:36:37;14.40;39.10
652;DHT22;310;48.490;9.200;2023-03-31T14:39:09;14.40;38.00
652;DHT22;310;48.490;9.200;2023-03-31T14:41:36;14.50;38.10
652;DHT22;310;48.490;9.200;2023-03-31T14:44:10;14.00;39.10
652;DHT22;310;48.490;9.200;2023-03-31T14:46:38;13.50;41.60
652;DHT22;310;48.490;9.200;2023-03-31T14:49:23;13.20;47.00
652;DHT22;310;48.490;9.200;2023-03-31T14:51:51;13.30;44.80
652;DHT22;310;48.490;9.200;2023-03-31T14:54:19;13.30;45.30
652;DHT22;310;48.490;9.200;2023-03-31T14:56:51;13.10;46.50
652;DHT22;310;48.490;9.200;2023-03-31T14:59:23;13.30;45.60
652;DHT22;310;48.490;9.200;2023-03-31T15:01:50;13.40;44.40
652;DHT22;310;48.490;9.200;2023-03-31T15:04:20;13.80;43.20
652;DHT22;310;48.490;9.200;2023-03-31T15:06:47;14.00;42.20
652;DHT22;310;48.490;9.200;2023-03-31T15:09:21;13.70;43.60
652;DHT22;310;48.490;9.200;2023-03-31T15:11:53;14.20;42.10
652;DHT22;310;48.490;9.200;2023-03-31T15:14:19;13.90;42.80
652;DHT22;310;48.490;9.200;2023-03-31T15:16:45;14.30;42.50
652;DHT22;310;48.490;9.200;2023-03-31T15:21:39;14.30;41.20
652;DHT22;310;48.490;9.200;2023-03-31T15:24:05;14.60;39.60
652;DHT22;310;48.490;9.200;2023-03-31T15:26:37;13.80;40.20
652;DHT22;310;48.490;9.200;2023-03-31T15:29:08;14.00;40.40
652;DHT22;310;48.490;9.200;2023-03-31T15:31:36;14.20;39.30
652;DHT22;310;48.490;9.200;2023-03-31T15:34:13;14.40;37.60
652;DHT22;310;48.490;9.200;2023-03-31T15:36:39;14.60;36.60
652;DHT22;310;48.490;9.200;2023-03-31T15:39:05;14.40;36.50
652;DHT22;310;48.490;9.200;2023-03-31T15:41:31;14.10;37.70
652;DHT22;310;48.490;9.200;2023-03-31T15:44:08;13.90;36.60
652;DHT22;310;48.490;9.200;2023-03-31T15:47:00;14.10;38.30
652;DHT22;310;48.490;9.200;2023-03-31T15:49:27;14.40;36.40
652;DHT22;310;48.490;9.200;2023-03-31T15:51:54;13.90;36.70
652;DHT22;310;48.490;9.200;2023-03-31T15:54:34;13.70;35.80
652;DHT22;310;48.490;9.200;2023-03-31T15:57:03;13.80;36.00
652;DHT22;310;48.490;9.200;2023-03-31T15:59:31;13.50;36.40
652;DHT22;310;48.490;9.200;2023-03-31T16:02:17;13.60;37.10
652;DHT22;310;48.490;9.200;2023-03-31T16:04:47;13.90;36.00
652;DHT22;310;48.490;9.200;2023-03-31T16:07:31;13.50;37.70
652;DHT22;310;48.490;9.200;2023-03-31T16:10:24;13.90;36.00
652;DHT22;310;48.490;9.200;2023-03-31T16:12:55;14.00;36.10
652;DHT22;310;48.490;9.200;2023-03-31T16:15:43;13.90;36.00
652;DHT22;310;48.490;9.200;2023-03-31T16:18:17;14.20;36.30
652;DHT22;310;48.490;9.200;2023-03-31T16:20:57;13.90;36.00
652;DHT22;310;48.490;9.200;2023-03-31T16:23:29;13.10;39.10
652;DHT22;310;48.490;9.200;2023-03-31T16:25:55;13.80;36.90
652;DHT22;310;48.490;9.200;2023-03-31T16:28:27;14.20;36.30
652;DHT22;310;48.490;9.200;2023-03-31T16:30:54;14.10;35.00
652;DHT22;310;48.490;9.200;2023-03-31T16:33:20;13.90;35.90
652;DHT22;310;48.490;9.200;2023-03-31T16:35:51;13.90;36.00
652;DHT22;310;48.490;9.200;2023-03-31T16:38:26;14.20;34.70
652;DHT22;310;48.490;9.200;2023-03-31T16:40:53;13.40;38.30
652;DHT22;310;48.490;9.200;2023-03-31T16:45:50;13.60;45.00
652;DHT22;310;48.490;9.200;2023-03-31T16:48:17;12.30;48.10
652;DHT22;310;48.490;9.200;2023-03-31T16:50:45;11.60;62.00
652;DHT22;310;48.490;9.200;2023-03-31T16:53:13;11.00;66.10
652;DHT22;310;48.490;9.200;2023-03-31T16:55:39;10.60;74.30
652;DHT22;310;48.490;9.200;2023-03-31T16:58:05;10.40;73.90
652;DHT22;310;48.490;9.200;2023-03-31T17:00:32;11.00;72.00
652;DHT22;310;48.490;9.200;2023-03-31T17:03:01;11.20;67.20
652;DHT22;310;48.490;9.200;2023-03-31T17:05:28;11.40;65.30
652;DHT22;310;48.490;9.200;2023-03-31T17:07:55;12.20;64.20
652;DHT22;310;48.490;9.200;2023-03-31T17:10:22;12.60;57.30
652;DHT22;310;48.490;9.200;2023-03-31T17:12:47;12.90;57.70
652;DHT22;310;48.490;9.200;2023-03-31T17:15:13;12.80;51.20
652;DHT22;310;48.490;9.200;2023-03-31T17:17:39;12.50;55.40
652;DHT22;310;48.490;9.200;2023-03-31T17:20:05;13.10;58.20
652;DHT22;310;48.490;9.200;2023-03-31T17:22:32;12.60;58.90
652;DHT22;310;48.490;9.200;2023-03-31T17:24:58;13.10;61.60
652;DHT22;310;48.490;9.200;2023-03-31T17:27:27;12.90;60.40
652;DHT22;310;48.490;9.200;2023-03-31T17:29:54;13.10;58.50
652;DHT22;310;48.490;9.200;2023-03-31T17:32:20;13.80;57.60
652;DHT22;310;48.490;9.200;2023-03-31T17:34:46;13.50;54.90
652;DHT22;310;48.490;9.200;2023-03-31T17:37:14;13.60;55.90
652;DHT22;310;48.490;9.200;2023-03-31T17:39:39;13.20;55.90
652;DHT22;310;48.490;9.200;2023-03-31T17:42:05;13.30;57.20
652;DHT22;310;48.490;9.200;2023-03-31T17:44:30;13.70;56.40
652;DHT22;310;48.490;9.200;2023-03-31T17:46:56;13.40;52.50
652;DHT22;310;48.490;9.200;2023-03-31T17:49:22;13.50;49.30
652;DHT22;310;48.490;9.200;2023-03-31T17:51:49;13.40;52.80
652;DHT22;310;48.490;9.200;2023-03-31T17:54:15;13.40;51.90
652;DHT22;310;48.490;9.200;2023-03-31T17:56:40;13.40;51.70
652;DHT22;310;48.490;9.200;2023-03-31T17:59:07;12.50;50.90
652;DHT22;310;48.490;9.200;2023-03-31T18:01:35;14.00;51.90
652;DHT22;310;48.490;9.200;2023-03-31T18:04:00;11.80;52.90
652;DHT22;310;48.490;9.200;2023-03-31T18:06:26;12.00;53.90
652;DHT22;310;48.490;9.200;2023-03-31T18:08:52;11.60;54.70
652;DHT22;310;48.490;9.200;2023-03-31T18:11:20;12.00;56.00
652;DHT22;310;48.490;9.200;2023-03-31T18:13:46;12.10;55.20
652;DHT22;310;48.490;9.200;2023-03-31T18:16:12;12.30;50.50
652;DHT22;310;48.490;9.200;2023-03-31T18:18:38;12.40;51.20
652;DHT22;310;48.490;9.200;2023-03-31T18:21:06;12.60;50.00
652;DHT22;310;48.490;9.200;2023-03-31T18:23:32;12.70;48.80
652;DHT22;310;48.490;9.200;2023-03-31T18:25:59;12.60;48.80
652;DHT22;310;48.490;9.200;2023-03-31T18:28:25;12.90;48.90
652;DHT22;310;48.490;9.200;2023-03-31T18:30:50;12.90;46.30
652;DHT22;310;48.490;9.200;2023-03-31T18:33:17;12.80;46.50
652;DHT22;310;48.490;9.200;2023-03-31T18:35:44;12.80;46.40
652;DHT22;310;48.490;9.200;2023-03-31T18:38:11;12.90;47.80
652;DHT22;310;48.490;9.200;2023-03-31T18:40:37;13.10;47.60
652;DHT22;310;48.490;9.200;2023-03-31T18:43:03;12.60;50.40
652;DHT22;310;48.490;9.200;2023-03-31T18:45:29;12.50;48.40
652;DHT22;310;48.490;9.200;2023-03-31T18:47:56;12.60;50.20
652;DHT22;310;48.490;9.200;2023-03-31T18:50:22;12.30;50.90
652;DHT22;310;48.490;9.200;2023-03-31T18:52:49;12.40;47.10
652;DHT22;310;48.490;9.200;2023-03-31T18:55:18;12.40;48.10
652;DHT22;310;48.490;9.200;2023-03-31T18:57:44;12.90;50.50
652;DHT22;310;48.490;9.200;2023-03-31T19:00:10;12.70;48.00
652;DHT22;310;48.490;9.200;2023-03-31T19:02:36;12.60;44.80
652;DHT22;310;48.490;9.200;2023-03-31T19:05:02;12.60;45.10
652;DHT22;310;48.490;9.200;2023-03-31T19:07:28;12.80;45.20
652;DHT22;310;48.490;9.200;2023-03-31T19:09:53;12.80;43.90
652;DHT22;310;48.490;9.200;2023-03-31T19:12:19;12.70;43.90
652;DHT22;310;48.490;9.200;2023-03-31T19:14:46;13.00;43.60
652;DHT22;310;48.490;9.200;2023-03-31T19:17:12;13.00;42.60
652;DHT22;310;48.490;9.200;2023-03-31T19:19:37;12.60;44.10
652;DHT22;310;48.490;9.200;2023-03-31T19:22:03;12.70;46.20
652;DHT22;310;48.490;9.200;2023-03-31T19:24:29;12.40;44.60
652;DHT22;310;48.490;9.200;2023-03-31T19:26:55;12.00;45.30
652;DHT22;310;48.490;9.200;2023-03-31T19:29:22;12.50;43.50
652;DHT22;310;48.490;9.200;2023-03-31T19:31:48;12.50;42.70
652;DHT22;310;48.490;9.200;2023-03-31T19:34:14;12.80;42.60